createdAt,value
2023-01-27T00:00:39.308Z,1.10
2023-01-27T00:03:06.452Z,1.10
2023-01-27T00:05:33.132Z,1.10
2023-01-27T00:07:59.725Z,1.30
2023-01-27T00:10:27.250Z,1.00
2023-01-27T00:13:12.841Z,1.00
2023-01-27T00:15:39.734Z,1.10
2023-01-27T00:18:07.774Z,0.70
2023-01-27T00:20:52.990Z,1.10
2023-01-27T00:23:41.248Z,1.10
2023-01-27T00:26:13.710Z,1.10
2023-01-27T00:28:41.460Z,1.10
2023-01-27T00:31:28.881Z,1.10
2023-01-27T00:34:01.924Z,1.10
2023-01-27T00:36:29.737Z,1.10
2023-01-27T00:38:56.909Z,1.10
2023-01-27T00:41:23.593Z,1.10
2023-01-27T00:43:52.890Z,1.10
2023-01-27T00:46:21.480Z,1.10
2023-01-27T00:48:48.683Z,1.10
2023-01-27T00:51:15.810Z,1.10
2023-01-27T00:53:42.544Z,1.10
2023-01-27T00:56:09.364Z,1.10
2023-01-27T00:58:36.176Z,1.10
2023-01-27T01:01:05.285Z,1.10
2023-01-27T01:03:33.455Z,1.10
2023-01-27T01:06:02.286Z,1.10
2023-01-27T01:08:30.838Z,1.10
2023-01-27T01:10:57.672Z,1.10
2023-01-27T01:13:24.385Z,1.10
2023-01-27T01:15:51.010Z,1.00
2023-01-27T01:18:17.634Z,1.10
2023-01-27T01:20:46.103Z,1.10
2023-01-27T01:23:14.145Z,1.00
2023-01-27T01:25:41.349Z,1.00
2023-01-27T01:28:08.805Z,1.20
2023-01-27T01:30:36.820Z,1.00
2023-01-27T01:33:03.939Z,1.00
2023-01-27T01:35:30.592Z,1.00
2023-01-27T01:37:57.793Z,1.00
2023-01-27T01:40:25.857Z,0.90
2023-01-27T01:42:56.765Z,1.10
2023-01-27T01:45:46.157Z,1.10
2023-01-27T01:48:23.891Z,1.00
2023-01-27T01:50:56.421Z,1.00
2023-01-27T01:53:29.293Z,1.00
2023-01-27T01:55:58.709Z,1.00
2023-01-27T01:58:28.049Z,1.00
2023-01-27T02:00:56.153Z,1.10
2023-01-27T02:03:25.924Z,1.00
2023-01-27T02:05:54.427Z,1.10
2023-01-27T02:08:33.835Z,1.10
2023-01-27T02:11:00.510Z,1.10
2023-01-27T02:13:27.277Z,1.10
2023-01-27T02:15:55.471Z,1.10
2023-01-27T02:18:22.574Z,1.10
2023-01-27T02:20:54.258Z,1.10
2023-01-27T02:23:29.377Z,1.20
2023-01-27T02:26:08.105Z,1.10
2023-01-27T02:28:34.868Z,1.10
2023-01-27T02:31:01.949Z,1.10
2023-01-27T02:33:28.725Z,1.10
2023-01-27T02:36:00.026Z,1.10
2023-01-27T02:38:33.155Z,1.20
2023-01-27T02:41:06.379Z,1.10
2023-01-27T02:43:32.947Z,1.20
2023-01-27T02:45:59.555Z,1.20
2023-01-27T02:48:26.296Z,1.20
2023-01-27T02:50:52.895Z,1.20
2023-01-27T02:53:19.528Z,1.20
2023-01-27T02:55:46.122Z,1.20
2023-01-27T02:58:15.472Z,0.80
2023-01-27T03:00:43.175Z,1.50
2023-01-27T03:03:09.835Z,1.10
2023-01-27T03:05:36.410Z,1.20
2023-01-27T03:08:03.183Z,1.20
2023-01-27T03:10:29.766Z,1.20
2023-01-27T03:12:56.381Z,1.20
2023-01-27T03:15:41.668Z,1.20
2023-01-27T03:18:12.213Z,1.20
2023-01-27T03:20:40.539Z,1.20
2023-01-27T03:23:07.940Z,1.20
2023-01-27T03:25:35.425Z,1.20
2023-01-27T03:28:02.602Z,1.20
2023-01-27T03:30:29.463Z,1.20
2023-01-27T03:32:58.309Z,1.20
2023-01-27T03:35:34.234Z,1.20
2023-01-27T03:38:20.258Z,1.20
2023-01-27T03:41:05.721Z,1.30
2023-01-27T03:43:51.032Z,1.30
2023-01-27T03:46:20.698Z,1.30
2023-01-27T03:48:52.838Z,1.30
2023-01-27T03:51:21.866Z,1.30
2023-01-27T03:53:48.830Z,1.40
2023-01-27T03:56:17.214Z,1.30
2023-01-27T03:58:44.327Z,1.30
2023-01-27T04:01:20.310Z,1.30
2023-01-27T04:04:06.141Z,1.30
2023-01-27T04:06:54.039Z,1.30
2023-01-27T04:09:21.783Z,1.30
2023-01-27T04:12:00.748Z,1.40
2023-01-27T04:14:33.022Z,1.40
2023-01-27T04:17:02.471Z,1.40
2023-01-27T04:19:29.518Z,1.40
2023-01-27T04:21:56.975Z,1.30
2023-01-27T04:24:23.712Z,1.30
2023-01-27T04:27:11.807Z,1.40
2023-01-27T04:29:41.141Z,1.30
2023-01-27T04:32:10.000Z,1.30
2023-01-27T04:34:37.723Z,1.30
2023-01-27T04:37:05.503Z,1.40
2023-01-27T04:39:32.492Z,1.30
2023-01-27T04:41:59.123Z,1.30
2023-01-27T04:44:26.017Z,1.40
2023-01-27T04:46:54.224Z,1.40
2023-01-27T04:49:21.011Z,1.40
2023-01-27T04:51:47.790Z,1.40
2023-01-27T04:54:14.573Z,1.40
2023-01-27T04:56:53.398Z,1.40
2023-01-27T04:59:19.995Z,1.40
2023-01-27T05:01:46.559Z,1.50
2023-01-27T05:04:13.164Z,1.50
2023-01-27T05:06:39.700Z,1.50
2023-01-27T05:09:06.316Z,1.60
2023-01-27T05:11:32.860Z,1.60
2023-01-27T05:13:59.397Z,1.50
2023-01-27T05:16:27.488Z,1.60
2023-01-27T05:18:54.464Z,1.60
2023-01-27T05:21:23.721Z,1.70
2023-01-27T05:23:50.809Z,1.70
2023-01-27T05:26:19.807Z,1.70
2023-01-27T05:28:48.372Z,1.70
2023-01-27T05:31:26.925Z,1.70
2023-01-27T05:33:54.858Z,1.70
2023-01-27T05:36:22.723Z,1.70
2023-01-27T05:38:49.667Z,1.60
2023-01-27T05:41:18.483Z,1.60
2023-01-27T05:43:46.529Z,1.60
2023-01-27T05:46:15.959Z,1.60
2023-01-27T05:48:47.735Z,1.70
2023-01-27T05:51:15.979Z,1.60
2023-01-27T05:53:43.788Z,1.60
2023-01-27T05:56:12.898Z,1.70
2023-01-27T05:58:39.854Z,1.70
2023-01-27T06:01:21.181Z,1.70
2023-01-27T06:03:48.587Z,1.70
2023-01-27T06:06:17.508Z,1.70
2023-01-27T06:08:45.600Z,1.70
2023-01-27T06:11:12.883Z,1.70
2023-01-27T06:13:39.809Z,1.70
2023-01-27T06:16:12.530Z,1.60
2023-01-27T06:18:39.891Z,1.70
2023-01-27T06:21:10.075Z,1.70
2023-01-27T06:23:36.966Z,1.60
2023-01-27T06:26:07.798Z,1.60
2023-01-27T06:28:34.375Z,1.70
2023-01-27T06:31:21.720Z,1.60
2023-01-27T06:33:49.287Z,1.60
2023-01-27T06:36:19.256Z,1.70
2023-01-27T06:38:45.976Z,1.70
2023-01-27T06:41:12.736Z,1.70
2023-01-27T06:43:39.342Z,1.70
2023-01-27T06:46:06.397Z,1.80
2023-01-27T06:48:33.651Z,1.80
2023-01-27T06:51:00.383Z,1.80
2023-01-27T06:53:26.997Z,1.80
2023-01-27T06:55:58.190Z,1.80
2023-01-27T06:58:25.068Z,1.90
2023-01-27T07:00:52.344Z,1.80
2023-01-27T07:03:18.997Z,1.90
2023-01-27T07:05:45.568Z,1.90
2023-01-27T07:08:12.206Z,1.90
2023-01-27T07:10:39.399Z,1.90
2023-01-27T07:13:11.232Z,2.00
2023-01-27T07:15:38.090Z,2.00
2023-01-27T07:18:05.127Z,2.00
2023-01-27T07:20:32.290Z,1.90
2023-01-27T07:23:00.311Z,2.00
2023-01-27T07:25:28.185Z,2.00
2023-01-27T07:27:57.619Z,1.60
2023-01-27T07:30:24.906Z,2.10
2023-01-27T07:32:51.508Z,2.00
2023-01-27T07:35:18.493Z,2.10
2023-01-27T07:37:45.088Z,2.10
2023-01-27T07:40:13.661Z,2.10
2023-01-27T07:42:40.903Z,2.10
2023-01-27T07:45:08.402Z,2.10
2023-01-27T07:47:35.121Z,2.10
2023-01-27T07:50:01.700Z,2.10
2023-01-27T07:52:28.332Z,2.10
2023-01-27T07:54:54.892Z,2.20
2023-01-27T07:57:21.505Z,2.20
2023-01-27T07:59:48.171Z,2.20
2023-01-27T08:02:14.739Z,2.30
2023-01-27T08:04:52.445Z,2.20
2023-01-27T08:07:20.091Z,2.30
2023-01-27T08:09:46.710Z,2.40
2023-01-27T08:12:13.297Z,2.40
2023-01-27T08:14:39.882Z,3.70
2023-01-27T08:17:06.565Z,3.50
2023-01-27T08:19:33.193Z,2.60
2023-01-27T08:21:59.775Z,2.60
2023-01-27T08:24:26.480Z,2.50
2023-01-27T08:26:53.125Z,2.70
2023-01-27T08:29:19.725Z,2.70
2023-01-27T08:31:46.414Z,2.80
2023-01-27T08:34:13.080Z,2.90
2023-01-27T08:36:43.479Z,2.90
2023-01-27T08:39:10.779Z,3.00
2023-01-27T08:41:37.607Z,3.00
2023-01-27T08:44:04.401Z,3.00
2023-01-27T08:46:31.072Z,3.10
2023-01-27T08:48:57.971Z,3.20
2023-01-27T08:51:24.712Z,3.20
2023-01-27T08:53:51.495Z,3.30
2023-01-27T08:56:18.421Z,3.30
2023-01-27T08:58:47.369Z,3.30
2023-01-27T09:01:15.529Z,3.30
2023-01-27T09:03:42.134Z,3.40
2023-01-27T09:06:11.323Z,3.40
2023-01-27T09:08:38.524Z,3.50
2023-01-27T09:11:10.029Z,3.50
2023-01-27T09:13:36.610Z,3.60
2023-01-27T09:16:03.590Z,3.60
2023-01-27T09:18:30.223Z,3.60
2023-01-27T09:20:56.778Z,3.60
2023-01-27T09:23:23.405Z,3.60
2023-01-27T09:25:50.327Z,3.60
2023-01-27T09:28:17.159Z,3.60
2023-01-27T09:30:46.382Z,3.60
2023-01-27T09:33:17.253Z,3.60
2023-01-27T09:35:48.490Z,3.60
2023-01-27T09:38:19.863Z,3.60
2023-01-27T09:41:22.952Z,3.70
2023-01-27T09:44:27.603Z,3.70
2023-01-27T09:47:09.393Z,3.70
2023-01-27T09:50:15.730Z,3.70
2023-01-27T09:52:47.978Z,3.80
2023-01-27T09:55:23.860Z,3.70
2023-01-27T09:58:15.492Z,3.70
2023-01-27T10:01:07.266Z,3.70
2023-01-27T10:04:07.114Z,3.70
2023-01-27T10:06:40.179Z,3.80
2023-01-27T10:09:18.176Z,3.70
2023-01-27T10:11:56.973Z,3.80
2023-01-27T10:14:52.460Z,3.70
2023-01-27T10:17:31.204Z,3.80
2023-01-27T10:20:11.101Z,3.80
2023-01-27T10:23:01.103Z,3.80
2023-01-27T10:25:53.424Z,3.90
2023-01-27T10:28:24.558Z,3.90
2023-01-27T10:31:21.112Z,3.90
2023-01-27T10:34:03.241Z,4.00
2023-01-27T10:36:54.478Z,3.90
2023-01-27T10:39:57.150Z,3.90
2023-01-27T10:42:38.702Z,4.00
2023-01-27T10:45:16.711Z,4.00
2023-01-27T10:48:16.199Z,4.00
2023-01-27T10:50:51.459Z,4.00
2023-01-27T10:53:40.363Z,4.00
2023-01-27T10:56:17.733Z,4.00
2023-01-27T10:59:05.646Z,4.00
2023-01-27T11:01:39.667Z,4.00
2023-01-27T11:04:16.450Z,4.10
2023-01-27T11:06:45.359Z,4.10
2023-01-27T11:09:37.877Z,4.10
2023-01-27T11:12:10.821Z,4.20
2023-01-27T11:14:46.854Z,4.20
2023-01-27T11:17:37.287Z,4.30
2023-01-27T11:20:24.103Z,4.30
2023-01-27T11:23:26.600Z,4.30
2023-01-27T11:26:40.022Z,4.30
2023-01-27T11:29:42.336Z,4.30
2023-01-27T11:32:17.595Z,4.30
2023-01-27T11:34:53.889Z,4.30
2023-01-27T11:37:30.836Z,4.30
2023-01-27T11:39:57.490Z,4.30
2023-01-27T11:42:31.417Z,4.30
2023-01-27T11:44:59.147Z,4.20
2023-01-27T11:47:31.398Z,4.30
2023-01-27T11:49:58.578Z,4.30
2023-01-27T11:52:28.992Z,4.30
2023-01-27T11:55:14.079Z,4.40
2023-01-27T11:57:45.636Z,4.30
2023-01-27T12:00:26.408Z,4.50
2023-01-27T12:03:06.019Z,4.40
2023-01-27T12:05:36.450Z,4.40
2023-01-27T12:08:05.282Z,4.30
2023-01-27T12:10:33.618Z,4.20
2023-01-27T12:13:24.770Z,4.30
2023-01-27T12:15:55.119Z,4.10
2023-01-27T12:18:23.610Z,4.10
2023-01-27T12:21:01.129Z,4.00
2023-01-27T12:23:33.024Z,4.10
2023-01-27T12:26:02.460Z,4.00
2023-01-27T12:28:36.036Z,4.10
2023-01-27T12:31:19.736Z,4.10
2023-01-27T12:33:56.184Z,4.10
2023-01-27T12:36:23.938Z,4.00
2023-01-27T12:38:56.094Z,4.00
2023-01-27T12:41:28.311Z,4.00
2023-01-27T12:44:00.148Z,4.00
2023-01-27T12:46:27.903Z,4.00
2023-01-27T12:49:02.864Z,3.90
2023-01-27T12:51:45.569Z,3.90
2023-01-27T12:54:25.226Z,3.80
2023-01-27T12:56:54.003Z,3.80
2023-01-27T12:59:23.762Z,3.80
2023-01-27T13:02:17.528Z,3.80
2023-01-27T13:04:57.635Z,3.80
2023-01-27T13:07:31.531Z,3.80
2023-01-27T13:10:04.047Z,3.70
2023-01-27T13:12:54.492Z,3.60
2023-01-27T13:15:23.739Z,4.00
2023-01-27T13:17:55.503Z,3.70
2023-01-27T13:20:30.319Z,3.60
2023-01-27T13:23:05.962Z,3.60
2023-01-27T13:25:47.515Z,3.60
2023-01-27T13:28:22.859Z,3.50
2023-01-27T13:30:52.952Z,3.40
2023-01-27T13:33:45.954Z,3.50
2023-01-27T13:36:35.338Z,3.60
2023-01-27T13:39:04.619Z,3.60
2023-01-27T13:42:01.886Z,3.60
2023-01-27T13:44:49.232Z,3.60
2023-01-27T13:47:24.514Z,3.60
2023-01-27T13:49:57.903Z,3.70
2023-01-27T13:52:24.993Z,3.70
2023-01-27T13:54:53.121Z,3.70
2023-01-27T13:57:32.636Z,3.80
2023-01-27T14:00:14.498Z,3.80
2023-01-27T14:02:55.785Z,3.30
2023-01-27T14:05:55.074Z,3.90
2023-01-27T14:08:45.258Z,4.00
2023-01-27T14:11:35.488Z,4.00
2023-01-27T14:14:37.305Z,4.00
2023-01-27T14:17:33.608Z,4.00
2023-01-27T14:20:14.830Z,4.10
2023-01-27T14:23:00.609Z,4.10
2023-01-27T14:25:56.390Z,4.10
2023-01-27T14:28:44.366Z,4.20
2023-01-27T14:31:21.058Z,4.30
2023-01-27T14:34:08.692Z,4.20
2023-01-27T14:37:13.977Z,3.90
2023-01-27T14:40:15.113Z,4.10
2023-01-27T14:42:44.949Z,4.10
2023-01-27T14:45:23.519Z,4.10
2023-01-27T14:48:09.985Z,4.00
2023-01-27T14:50:42.267Z,4.10
2023-01-27T14:53:33.479Z,4.10
2023-01-27T14:56:17.318Z,4.10
2023-01-27T14:59:10.876Z,4.10
2023-01-27T15:01:52.787Z,5.40
2023-01-27T15:04:53.821Z,4.10
2023-01-27T15:07:38.821Z,4.10
2023-01-27T15:10:25.685Z,4.10
2023-01-27T15:13:10.989Z,4.20
2023-01-27T15:16:22.933Z,4.10
2023-01-27T15:19:02.560Z,4.10
2023-01-27T15:21:38.347Z,4.10
2023-01-27T15:24:25.656Z,4.10
2023-01-27T15:26:54.068Z,4.00
2023-01-27T15:29:28.380Z,4.10
2023-01-27T15:32:15.110Z,4.00
2023-01-27T15:34:44.450Z,3.90
2023-01-27T15:37:20.564Z,3.80
2023-01-27T15:40:05.626Z,3.90
2023-01-27T15:43:06.532Z,3.90
2023-01-27T15:45:35.754Z,3.90
2023-01-27T15:48:12.104Z,3.90
2023-01-27T15:50:55.377Z,3.90
2023-01-27T15:53:36.967Z,3.90
2023-01-27T15:56:05.401Z,3.90
2023-01-27T15:58:41.747Z,3.90
2023-01-27T16:01:30.337Z,3.90
2023-01-27T16:04:14.972Z,3.90
2023-01-27T16:07:02.855Z,3.90
2023-01-27T16:09:48.760Z,3.90
2023-01-27T16:12:26.799Z,3.90
2023-01-27T16:15:15.639Z,3.90
2023-01-27T16:18:00.481Z,3.90
2023-01-27T16:20:42.370Z,3.80
2023-01-27T16:23:16.290Z,3.80
2023-01-27T16:25:50.240Z,3.80
2023-01-27T16:28:27.481Z,3.80
2023-01-27T16:31:16.126Z,3.80
2023-01-27T16:33:45.886Z,3.80
2023-01-27T16:36:28.304Z,3.80
2023-01-27T16:38:58.238Z,3.80
2023-01-27T16:41:32.658Z,3.80
2023-01-27T16:44:15.774Z,3.80
2023-01-27T16:46:53.478Z,3.80
2023-01-27T16:49:36.642Z,3.70
2023-01-27T16:52:05.609Z,3.70
2023-01-27T16:54:40.561Z,3.70
2023-01-27T16:57:08.224Z,3.80
2023-01-27T16:59:39.611Z,3.80
2023-01-27T17:02:17.589Z,3.80
2023-01-27T17:04:50.720Z,3.80
2023-01-27T17:07:18.052Z,3.80
2023-01-27T17:09:53.660Z,3.70
2023-01-27T17:12:43.225Z,3.70
2023-01-27T17:15:25.164Z,3.70
2023-01-27T17:17:52.055Z,3.70
2023-01-27T17:20:32.084Z,3.80
2023-01-27T17:23:00.088Z,3.80
2023-01-27T17:25:38.749Z,3.80
2023-01-27T17:28:11.734Z,3.70
2023-01-27T17:30:41.798Z,3.80
2023-01-27T17:33:17.681Z,3.80
2023-01-27T17:35:53.615Z,3.80
2023-01-27T17:38:32.866Z,3.70
2023-01-27T17:40:59.486Z,3.60
2023-01-27T17:43:44.275Z,3.60
2023-01-27T17:46:16.351Z,3.50
2023-01-27T17:48:50.652Z,3.40
2023-01-27T17:51:22.544Z,3.40
2023-01-27T17:53:49.855Z,3.50
2023-01-27T17:56:34.965Z,3.40
2023-01-27T17:59:11.653Z,3.40
2023-01-27T18:01:38.706Z,3.40
2023-01-27T18:04:06.160Z,3.30
2023-01-27T18:06:33.310Z,3.20
2023-01-27T18:09:14.679Z,3.20
2023-01-27T18:11:53.449Z,4.60
2023-01-27T18:14:21.680Z,3.00
2023-01-27T18:17:16.477Z,3.00
2023-01-27T18:19:51.027Z,2.90
2023-01-27T18:22:17.801Z,2.40
2023-01-27T18:24:57.231Z,2.70
2023-01-27T18:27:31.271Z,2.70
2023-01-27T18:30:08.651Z,2.60
2023-01-27T18:32:40.508Z,2.60
2023-01-27T18:35:29.048Z,2.70
2023-01-27T18:38:22.324Z,2.60
2023-01-27T18:40:48.997Z,2.60
2023-01-27T18:43:15.595Z,2.60
2023-01-27T18:45:44.015Z,2.60
2023-01-27T18:48:14.077Z,2.50
2023-01-27T18:50:45.877Z,2.50
2023-01-27T18:53:20.915Z,2.50
2023-01-27T18:55:47.538Z,2.40
2023-01-27T18:58:14.160Z,2.40
2023-01-27T19:00:48.245Z,2.40
2023-01-27T19:03:19.261Z,2.40
2023-01-27T19:05:46.735Z,2.40
2023-01-27T19:08:24.368Z,2.40
2023-01-27T19:10:51.479Z,2.30
2023-01-27T19:13:18.452Z,2.30
2023-01-27T19:15:51.896Z,2.30
2023-01-27T19:18:25.050Z,2.30
2023-01-27T19:20:54.273Z,2.30
2023-01-27T19:23:21.680Z,2.30
2023-01-27T19:25:51.242Z,2.30
2023-01-27T19:28:25.518Z,2.30
2023-01-27T19:30:52.113Z,2.30
2023-01-27T19:33:24.018Z,2.20
2023-01-27T19:35:54.728Z,2.30
2023-01-27T19:38:22.778Z,2.20
2023-01-27T19:40:49.591Z,2.20
2023-01-27T19:43:17.182Z,2.20
2023-01-27T19:45:46.812Z,2.10
2023-01-27T19:48:23.063Z,2.10
2023-01-27T19:50:51.197Z,2.40
2023-01-27T19:53:19.281Z,2.00
2023-01-27T19:55:47.339Z,2.00
2023-01-27T19:58:24.838Z,2.00
2023-01-27T20:00:52.688Z,2.00
2023-01-27T20:03:19.377Z,2.00
2023-01-27T20:05:46.684Z,1.50
2023-01-27T20:08:16.701Z,1.90
2023-01-27T20:10:43.617Z,1.90
2023-01-27T20:13:14.879Z,1.90
2023-01-27T20:15:41.897Z,1.90
2023-01-27T20:18:12.722Z,1.90
2023-01-27T20:20:39.372Z,1.90
2023-01-27T20:23:06.354Z,1.80
2023-01-27T20:25:34.079Z,1.80
2023-01-27T20:28:01.620Z,1.80
2023-01-27T20:30:33.060Z,1.80
2023-01-27T20:33:01.421Z,1.80
2023-01-27T20:35:28.551Z,1.70
2023-01-27T20:37:55.458Z,1.70
2023-01-27T20:40:25.128Z,1.70
2023-01-27T20:42:52.481Z,1.70
2023-01-27T20:45:20.272Z,1.10
2023-01-27T20:47:54.192Z,1.60
2023-01-27T20:50:22.951Z,1.60
2023-01-27T20:52:51.157Z,1.60
2023-01-27T20:55:21.260Z,1.20
2023-01-27T20:57:48.730Z,1.10
2023-01-27T21:00:18.272Z,1.50
2023-01-27T21:02:47.599Z,1.40
2023-01-27T21:05:15.159Z,1.40
2023-01-27T21:07:41.913Z,1.40
2023-01-27T21:10:09.293Z,1.30
2023-01-27T21:12:35.907Z,1.30
2023-01-27T21:15:07.945Z,1.20
2023-01-27T21:17:34.624Z,1.20
2023-01-27T21:20:01.247Z,1.10
2023-01-27T21:22:27.877Z,1.10
2023-01-27T21:24:54.461Z,1.10
2023-01-27T21:27:21.022Z,1.10
2023-01-27T21:29:47.603Z,1.00
2023-01-27T21:32:14.336Z,1.00
2023-01-27T21:34:40.884Z,0.90
2023-01-27T21:37:07.439Z,1.00
2023-01-27T21:39:34.043Z,1.00
2023-01-27T21:42:00.645Z,1.00
2023-01-27T21:44:47.764Z,1.00
2023-01-27T21:47:17.103Z,0.90
2023-01-27T21:50:00.378Z,0.90
2023-01-27T21:52:39.103Z,0.80
2023-01-27T21:55:08.870Z,0.70
2023-01-27T21:57:36.042Z,0.60
2023-01-27T22:00:05.135Z,0.60
2023-01-27T22:02:31.821Z,0.60
2023-01-27T22:04:58.470Z,0.50
2023-01-27T22:07:26.962Z,0.50
2023-01-27T22:09:53.615Z,0.50
2023-01-27T22:12:21.854Z,0.40
2023-01-27T22:14:48.443Z,0.40
2023-01-27T22:17:15.356Z,0.60
2023-01-27T22:19:41.939Z,0.40
2023-01-27T22:22:11.755Z,0.40
2023-01-27T22:24:38.344Z,0.40
2023-01-27T22:27:04.997Z,0.40
2023-01-27T22:29:31.596Z,0.40
2023-01-27T22:31:58.226Z,0.40
2023-01-27T22:34:24.901Z,0.40
2023-01-27T22:36:51.876Z,0.30
2023-01-27T22:39:18.936Z,0.40
2023-01-27T22:41:46.283Z,0.20
2023-01-27T22:44:13.779Z,0.40
2023-01-27T22:46:42.637Z,0.40
2023-01-27T22:49:10.156Z,0.40
2023-01-27T22:51:37.185Z,0.30
2023-01-27T22:54:04.019Z,0.30
2023-01-27T22:56:30.917Z,0.20
2023-01-27T22:58:57.463Z,0.20
2023-01-27T23:01:24.103Z,0.20
2023-01-27T23:03:50.863Z,0.40
2023-01-27T23:06:17.524Z,0.00
2023-01-27T23:08:44.194Z,0.00
2023-01-27T23:11:10.834Z,-0.10
2023-01-27T23:13:37.905Z,-0.10
2023-01-27T23:16:04.977Z,-0.20
2023-01-27T23:18:31.632Z,-0.20
2023-01-27T23:21:03.725Z,-0.30
2023-01-27T23:23:30.532Z,-0.30
2023-01-27T23:25:57.287Z,-0.40
2023-01-27T23:28:23.926Z,-0.40
2023-01-27T23:30:51.340Z,-0.40
2023-01-27T23:33:19.546Z,-0.50
2023-01-27T23:35:46.716Z,-0.60
2023-01-27T23:38:30.363Z,-0.60
2023-01-27T23:41:03.147Z,-0.50
2023-01-27T23:43:32.838Z,-0.60
2023-01-27T23:45:59.772Z,-0.80
2023-01-27T23:48:27.458Z,-0.60
2023-01-27T23:50:54.651Z,-0.60
2023-01-27T23:53:21.242Z,-0.70
2023-01-27T23:55:56.164Z,-0.60
2023-01-27T23:58:22.870Z,-0.70
